Time;durP1;ratioP1;P1;durP2;ratioP2;P2;SDS_P1;SDS_P2;PMS_P1;PMS_P2;Temp;Humidity;BMP_temperature;BMP_pressure;BME280_temperature;BME280_humidity;BME280_pressure;Samples;Min_cycle;Max_cycle;Signal;HPM_P1;HPM_P2
2021/12/14 00:02:13;;;;;;;125.97;7.77;;;;;;;2.37;100.00;95627.53;4927316;29;20190;-73
2021/12/14 00:04:39;;;;;;;134.37;9.10;;;;;;;2.44;100.00;95624.81;4956203;28;20197;-73
2021/12/14 00:07:10;;;;;;;98.87;8.50;;;;;;;2.50;100.00;95630.56;4952844;28;20222;-73
2021/12/14 00:09:39;;;;;;;206.67;11.33;;;;;;;2.40;100.00;95615.19;4954955;28;20209;-73
2021/12/14 00:15:06;;;;;;;26.00;6.23;;;;;;;2.62;100.00;95616.69;4934941;29;20599;-72
2021/12/14 00:17:48;;;;;;;61.13;9.33;;;;;;;2.57;100.00;95609.00;4947770;28;20202;-73
2021/12/14 00:20:26;;;;;;;167.00;9.43;;;;;;;2.42;100.00;95599.41;4965228;28;20224;-73
2021/12/14 00:25:46;;;;;;;173.83;10.00;;;;;;;2.42;100.00;95612.88;4957551;28;20214;-72
2021/12/14 00:28:21;;;;;;;170.53;8.90;;;;;;;2.42;100.00;95612.88;4950816;28;20214;-73
2021/12/14 00:30:49;;;;;;;50.80;6.27;;;;;;;2.42;100.00;95613.66;4953340;29;20204;-73
2021/12/14 00:33:18;;;;;;;57.40;6.00;;;;;;;2.42;100.00;95613.66;4951719;28;20202;-73
2021/12/14 00:35:45;;;;;;;100.07;7.47;;;;;;;2.33;100.00;95618.66;4954089;29;20245;-73
2021/12/14 00:38:14;;;;;;;64.33;6.63;;;;;;;2.25;100.00;95632.53;4952992;29;20201;-72
2021/12/14 00:40:44;;;;;;;89.00;6.03;;;;;;;2.08;100.00;95644.06;4955530;28;20186;-73
2021/12/14 00:43:10;;;;;;;20.93;3.77;;;;;;;2.29;100.00;95633.31;4963057;28;20325;-73
2021/12/14 00:45:39;;;;;;;35.63;6.37;;;;;;;2.42;100.00;95621.75;4950104;29;20224;-73
2021/12/14 00:48:06;;;;;;;27.63;6.87;;;;;;;2.47;100.00;95634.06;4952041;28;20217;-73
2021/12/14 00:50:34;;;;;;;61.20;9.13;;;;;;;2.35;100.00;95621.75;4966390;28;20189;-73
2021/12/14 00:53:00;;;;;;;56.37;8.30;;;;;;;2.44;100.00;95619.41;4956086;28;20201;-73
2021/12/14 00:55:36;;;;;;;62.80;7.20;;;;;;;2.52;100.00;95614.78;4953516;29;20197;-73
2021/12/14 00:58:03;;;;;;;152.10;12.27;;;;;;;2.44;100.00;95616.72;4968862;28;20186;-73
2021/12/14 01:00:35;;;;;;;95.13;8.67;;;;;;;2.36;100.00;95620.56;4953905;29;20190;-73
2021/12/14 01:03:03;;;;;;;195.93;8.77;;;;;;;2.33;100.00;95618.66;4952623;29;20273;-73
2021/12/14 01:05:35;;;;;;;44.90;6.13;;;;;;;2.35;100.00;95613.66;4948420;28;20222;-72
2021/12/14 01:08:07;;;;;;;83.43;6.87;;;;;;;2.53;100.00;95610.16;4954268;28;20288;-73
2021/12/14 01:10:45;;;;;;;65.40;7.53;;;;;;;2.71;100.00;95600.09;4953451;29;20252;-73
2021/12/14 01:13:11;;;;;;;58.70;7.73;;;;;;;2.54;100.00;95604.38;4952212;29;20219;-73
2021/12/14 01:15:58;;;;;;;89.77;7.23;;;;;;;2.51;100.00;95612.47;4940470;29;20328;-73
2021/12/14 01:21:26;;;;;;;72.60;6.37;;;;;;;2.47;100.00;95602.47;4958469;28;20201;-73
2021/12/14 01:24:01;;;;;;;39.97;6.13;;;;;;;2.44;100.00;95615.97;4968244;28;20204;-73
2021/12/14 01:26:30;;;;;;;155.13;8.90;;;;;;;2.41;100.00;95614.78;4952362;29;20228;-73
2021/12/14 01:28:56;;;;;;;52.20;5.80;;;;;;;2.36;100.00;95606.31;4936848;29;20293;-72
2021/12/14 01:31:29;;;;;;;143.07;7.23;;;;;;;2.41;100.00;95619.41;4920562;29;20625;-73
2021/12/14 01:33:59;;;;;;;122.07;7.47;;;;;;;2.31;100.00;95629.06;4954418;28;20694;-72
2021/12/14 01:39:21;;;;;;;88.57;4.40;;;;;;;2.07;100.00;95629.81;4940725;28;20767;-73
2021/12/14 01:42:14;;;;;;;195.43;8.97;;;;;;;1.96;100.00;95630.97;4934668;29;20716;-72
2021/12/14 01:44:45;;;;;;;76.60;5.33;;;;;;;1.78;100.00;95632.88;4934268;29;20713;-73
2021/12/14 01:47:19;;;;;;;224.97;10.87;;;;;;;1.86;100.00;95632.53;4946674;28;20300;-73
2021/12/14 01:50:22;;;;;;;105.27;6.77;;;;;;;2.18;100.00;95641.38;4946261;28;20236;-73
2021/12/14 01:53:22;;;;;;;86.50;5.00;;;;;;;2.12;100.00;95634.81;4941489;28;20702;-73
2021/12/14 01:55:53;;;;;;;130.80;7.03;;;;;;;2.02;100.00;95637.53;4947624;29;20269;-73
2021/12/14 01:58:22;;;;;;;210.10;9.00;;;;;;;1.85;100.00;95636.34;4951786;29;20309;-73
2021/12/14 02:01:01;;;;;;;58.73;4.27;;;;;;;1.76;100.00;95648.66;4952588;29;20297;-73
2021/12/14 02:03:34;;;;;;;40.13;4.33;;;;;;;1.69;100.00;95645.94;4947890;29;20190;-73
2021/12/14 02:06:00;;;;;;;113.10;5.70;;;;;;;1.69;100.00;95637.88;4940545;29;20217;-74
2021/12/14 02:08:34;;;;;;;148.90;6.43;;;;;;;1.87;100.00;95633.25;4952289;28;20209;-74
2021/12/14 02:11:03;;;;;;;84.03;4.37;;;;;;;1.70;100.00;95631.31;4951539;29;20225;-74
2021/12/14 02:13:40;;;;;;;59.23;5.83;;;;;;;1.77;100.00;95637.50;4951358;28;20194;-73
2021/12/14 02:16:10;;;;;;;62.57;4.33;;;;;;;2.01;100.00;95639.44;4939419;29;20201;-73
2021/12/14 02:18:36;;;;;;;107.53;5.83;;;;;;;1.59;100.00;95635.94;4936586;28;20209;-73
2021/12/14 02:21:10;;;;;;;43.30;4.23;;;;;;;1.78;100.00;95640.97;4957745;28;20224;-73
2021/12/14 02:23:39;;;;;;;64.83;4.63;;;;;;;1.76;100.00;95649.44;4950106;28;20211;-73
2021/12/14 02:26:11;;;;;;;39.93;3.00;;;;;;;1.76;100.00;95640.56;4966778;28;20224;-74
2021/12/14 02:28:37;;;;;;;56.07;3.10;;;;;;;1.83;100.00;95643.28;4950864;28;20225;-73
2021/12/14 02:31:07;;;;;;;49.20;3.90;;;;;;;1.67;100.00;95635.56;4950625;29;20202;-74
2021/12/14 02:33:37;;;;;;;54.63;3.40;;;;;;;1.94;100.00;95628.66;4950645;28;20194;-72
2021/12/14 02:36:07;;;;;;;43.67;3.00;;;;;;;1.65;100.00;95627.09;4948420;29;20194;-72
2021/12/14 02:38:33;;;;;;;76.70;5.57;;;;;;;1.74;100.00;95637.50;4934176;29;20593;-71
2021/12/14 02:41:07;;;;;;;74.73;4.17;;;;;;;1.61;100.00;95629.03;4966817;28;20230;-72
2021/12/14 02:43:50;;;;;;;31.33;3.27;;;;;;;1.43;100.00;95625.50;4959115;28;20216;-72
2021/12/14 02:46:22;;;;;;;58.07;2.50;;;;;;;1.42;100.00;95612.44;4936775;29;20303;-75
2021/12/14 02:48:52;;;;;;;66.47;3.00;;;;;;;1.38;100.00;95620.50;4956257;28;20220;-74
2021/12/14 02:51:18;;;;;;;16.93;2.53;;;;;;;1.41;100.00;95624.34;4969368;28;20308;-74
2021/12/14 02:53:46;;;;;;;69.63;4.57;;;;;;;1.48;100.00;95613.63;4952159;28;20278;-73
2021/12/14 02:56:17;;;;;;;80.80;3.90;;;;;;;1.29;100.00;95622.00;4968229;28;20201;-74
2021/12/14 02:58:44;;;;;;;73.20;5.07;;;;;;;1.10;100.00;95621.16;4940500;29;20213;-74
2021/12/14 03:01:12;;;;;;;47.73;3.10;;;;;;;1.19;100.00;95626.19;4948132;29;20198;-74
2021/12/14 03:03:39;;;;;;;37.70;2.50;;;;;;;1.06;100.00;95619.63;4949663;29;20660;-74
2021/12/14 03:06:09;;;;;;;59.70;3.10;;;;;;;1.08;100.00;95622.69;4950902;29;20707;-75
2021/12/14 03:08:44;;;;;;;21.03;2.37;;;;;;;1.02;100.00;95618.81;4967213;28;20698;-74
2021/12/14 03:11:12;;;;;;;66.33;3.83;;;;;;;1.23;100.00;95610.84;4959165;28;21271;-74
2021/12/14 03:13:45;;;;;;;41.73;2.93;;;;;;;1.32;100.00;95611.25;4950342;28;20190;-74
2021/12/14 03:16:20;;;;;;;106.17;5.40;;;;;;;1.21;100.00;95619.28;4943182;28;20576;-73
2021/12/14 03:18:49;;;;;;;67.77;2.60;;;;;;;1.15;100.00;95612.72;4942466;28;20275;-75
2021/12/14 03:21:22;;;;;;;125.30;5.73;;;;;;;1.16;100.00;95618.88;4951237;28;20799;-75
2021/12/14 03:23:55;;;;;;;161.13;7.43;;;;;;;1.26;100.00;95617.41;4945001;28;20215;-74
2021/12/14 03:26:31;;;;;;;140.80;6.57;;;;;;;1.10;100.00;95625.78;4952413;28;20230;-73
2021/12/14 03:29:00;;;;;;;112.73;4.47;;;;;;;1.02;100.00;95622.28;4951624;28;20216;-73
2021/12/14 03:31:34;;;;;;;93.03;5.00;;;;;;;1.13;100.00;95619.66;4947372;29;20198;-73
2021/12/14 03:34:04;;;;;;;75.70;3.30;;;;;;;1.19;100.00;95628.88;4942420;29;20217;-73
2021/12/14 03:36:35;;;;;;;123.00;8.57;;;;;;;1.17;100.00;95629.25;4931468;29;20186;-73
2021/12/14 03:39:07;;;;;;;129.47;5.03;;;;;;;1.20;100.00;95625.06;4950404;29;20218;-73
2021/12/14 03:41:38;;;;;;;130.43;7.27;;;;;;;1.26;100.00;95628.91;4948045;29;20206;-73
2021/12/14 03:44:30;;;;;;;73.50;3.70;;;;;;;1.30;100.00;95628.91;4949734;29;20206;-74
2021/12/14 03:47:04;;;;;;;189.77;7.90;;;;;;;1.24;100.00;95633.88;4936831;28;20230;-73
2021/12/14 03:49:48;;;;;;;211.00;9.17;;;;;;;1.28;100.00;95632.00;4952636;28;20220;-73
2021/12/14 03:52:23;;;;;;;126.87;5.73;;;;;;;1.31;100.00;95622.41;4951622;28;20206;-73
2021/12/14 03:54:50;;;;;;;137.07;7.50;;;;;;;1.35;100.00;95628.56;4950264;28;20196;-73
2021/12/14 03:57:17;;;;;;;165.17;7.13;;;;;;;1.16;100.00;95624.25;4949998;29;20194;-73
2021/12/14 03:59:44;;;;;;;80.73;6.17;;;;;;;1.27;100.00;95646.59;4935342;29;20220;-73
2021/12/14 04:02:13;;;;;;;91.37;6.50;;;;;;;1.25;100.00;95640.81;4952560;28;20197;-73
2021/12/14 04:04:50;;;;;;;119.87;4.77;;;;;;;1.07;100.00;95635.38;4953906;29;20307;-73
2021/12/14 04:07:16;;;;;;;104.07;5.60;;;;;;;0.93;100.00;95639.94;4953941;29;20257;-73
2021/12/14 04:09:46;;;;;;;87.90;4.33;;;;;;;1.16;100.00;95622.34;4956289;28;20387;-73
2021/12/14 04:12:16;;;;;;;145.43;6.17;;;;;;;1.11;100.00;95619.25;4965033;28;20746;-74
2021/12/14 04:14:54;;;;;;;68.33;4.67;;;;;;;1.16;100.00;95629.63;4954614;28;20198;-71
2021/12/14 04:17:25;;;;;;;95.93;5.90;;;;;;;1.10;100.00;95634.59;4962325;28;20224;-71
2021/12/14 04:19:52;;;;;;;87.17;4.93;;;;;;;1.03;100.00;95626.53;4950050;28;20592;-71
2021/12/14 04:22:22;;;;;;;114.63;4.37;;;;;;;1.08;100.00;95634.25;4954648;29;20201;-71
2021/12/14 04:24:52;;;;;;;118.73;5.80;;;;;;;1.06;100.00;95616.94;4965351;28;20190;-74
2021/12/14 04:27:23;;;;;;;52.00;4.00;;;;;;;1.08;100.00;95633.47;4965724;28;20250;-71
2021/12/14 04:29:49;;;;;;;141.73;6.70;;;;;;;1.03;100.00;95628.44;4947122;29;20262;-71
2021/12/14 04:32:17;;;;;;;62.80;4.83;;;;;;;1.04;100.00;95628.06;4953660;29;20198;-71
2021/12/14 04:34:43;;;;;;;108.57;6.93;;;;;;;1.11;100.00;95625.41;4953238;29;20660;-71
2021/12/14 04:37:11;;;;;;;32.27;2.33;;;;;;;1.17;100.00;95620.44;4971969;28;20792;-71
2021/12/14 04:39:44;;;;;;;51.37;2.80;;;;;;;0.90;100.00;95617.25;4965529;28;20579;-71
2021/12/14 04:53:35;;;;;;;28.20;2.83;;;;;;;1.10;100.00;95601.59;4949294;29;20218;-72
2021/12/14 04:56:04;;;;;;;22.20;2.60;;;;;;;1.13;100.00;95606.19;4959898;28;20219;-72
2021/12/14 04:58:37;;;;;;;21.40;2.20;;;;;;;1.08;100.00;95606.56;4953688;28;20245;-72
2021/12/14 05:01:08;;;;;;;12.87;2.60;;;;;;;1.11;100.00;95605.81;4955938;28;20568;-72
2021/12/14 05:03:57;;;;;;;27.07;2.90;;;;;;;1.16;100.00;95600.84;4941648;29;20287;-72
2021/12/14 05:06:26;;;;;;;29.57;2.77;;;;;;;1.11;100.00;95598.50;4952560;29;20589;-72
2021/12/14 05:09:22;;;;;;;42.60;3.00;;;;;;;1.06;100.00;95598.88;4945471;28;20222;-72
2021/12/14 05:12:01;;;;;;;21.37;2.37;;;;;;;0.64;100.00;95604.06;4946845;28;20216;-72
2021/12/14 05:14:39;;;;;;;17.43;2.60;;;;;;;0.94;100.00;95603.81;4949534;29;20198;-72
2021/12/14 05:17:09;;;;;;;56.97;4.47;;;;;;;0.92;100.00;95614.16;4952529;28;20194;-72
2021/12/14 05:19:38;;;;;;;25.77;3.50;;;;;;;0.97;100.00;95611.91;4952666;28;20230;-71
2021/12/14 05:22:11;;;;;;;12.30;3.10;;;;;;;0.98;100.00;95616.16;4952582;29;20245;-71
2021/12/14 05:24:48;;;;;;;44.30;3.50;;;;;;;0.94;100.00;95609.19;4948112;28;20201;-71
2021/12/14 05:27:23;;;;;;;12.10;2.77;;;;;;;1.15;100.00;95612.72;4935989;29;20228;-71
2021/12/14 05:29:49;;;;;;;66.97;4.40;;;;;;;1.06;100.00;95635.75;4960735;28;20217;-73
2021/12/14 05:32:17;;;;;;;21.13;2.80;;;;;;;1.10;100.00;95617.72;4951849;28;20249;-72
2021/12/14 05:34:47;;;;;;;36.90;3.97;;;;;;;1.02;100.00;95621.50;4965268;28;20202;-72
2021/12/14 05:37:18;;;;;;;58.77;3.87;;;;;;;0.84;100.00;95632.22;4955895;28;20209;-72
2021/12/14 05:39:50;;;;;;;79.17;3.87;;;;;;;0.84;100.00;95620.66;4953020;28;20305;-72
2021/12/14 05:45:28;;;;;;;61.27;4.30;;;;;;;1.00;100.00;95621.16;4963153;28;20602;-72
2021/12/14 05:47:58;;;;;;;51.23;6.13;;;;;;;0.98;100.00;95605.38;4967432;28;20193;-72
2021/12/14 05:50:34;;;;;;;42.17;4.93;;;;;;;0.99;100.00;95603.44;4972211;28;20202;-72
2021/12/14 05:53:01;;;;;;;42.03;3.73;;;;;;;1.02;100.00;95606.16;4935454;29;20208;-73
2021/12/14 05:55:30;;;;;;;40.73;4.30;;;;;;;1.05;100.00;95596.56;4966023;28;20197;-72
2021/12/14 05:57:58;;;;;;;43.90;4.63;;;;;;;1.00;100.00;95605.75;4934319;29;20195;-72
2021/12/14 06:00:25;;;;;;;27.23;3.67;;;;;;;0.89;100.00;95604.97;4935291;29;20214;-72
2021/12/14 06:02:59;;;;;;;67.67;4.07;;;;;;;0.83;100.00;95601.06;4951678;29;20197;-71
2021/12/14 06:05:29;;;;;;;72.57;5.20;;;;;;;0.81;100.00;95595.31;4953013;29;20232;-72
2021/12/14 06:07:55;;;;;;;69.47;4.70;;;;;;;0.92;100.00;95603.41;4951827;29;20193;-72
2021/12/14 06:10:23;;;;;;;37.50;4.30;;;;;;;1.11;100.00;95595.03;4946449;28;20688;-72
2021/12/14 06:12:50;;;;;;;31.60;5.93;;;;;;;1.01;100.00;95607.31;4931534;29;20197;-72
2021/12/14 06:15:25;;;;;;;56.03;7.20;;;;;;;0.99;100.00;95585.41;4949169;28;20280;-73
2021/12/14 06:17:51;;;;;;;64.53;6.30;;;;;;;1.05;100.00;95597.31;4951843;29;20735;-73
2021/12/14 06:20:37;;;;;;;232.67;9.37;;;;;;;0.99;100.00;95584.63;4940308;29;20694;-73
2021/12/14 06:23:07;;;;;;;151.47;7.83;;;;;;;0.97;100.00;95587.69;4933061;29;20596;-73
2021/12/14 06:25:59;;;;;;;131.17;6.80;;;;;;;0.94;100.00;95585.00;4939039;29;20688;-73
2021/12/14 06:28:28;;;;;;;44.27;4.47;;;;;;;1.00;100.00;95589.63;4951348;28;20268;-73
2021/12/14 06:30:57;;;;;;;72.63;4.67;;;;;;;1.05;100.00;95575.06;4960841;28;20672;-72
2021/12/14 06:33:29;;;;;;;49.00;4.70;;;;;;;0.95;100.00;95575.78;4956805;28;20553;-73
2021/12/14 06:35:58;;;;;;;100.03;6.63;;;;;;;0.99;100.00;95569.28;4951801;29;20190;-73
2021/12/14 06:38:30;;;;;;;100.40;6.73;;;;;;;1.05;100.00;95578.50;4951599;28;20209;-73
2021/12/14 06:41:07;;;;;;;144.90;7.70;;;;;;;1.09;100.00;95575.81;4953998;28;20186;-72
2021/12/14 06:43:41;;;;;;;68.90;5.53;;;;;;;1.07;100.00;95570.03;4953736;28;20237;-73
2021/12/14 06:46:29;;;;;;;128.13;6.77;;;;;;;0.95;100.00;95579.22;4951377;29;20225;-73
2021/12/14 06:49:03;;;;;;;100.53;6.30;;;;;;;0.85;100.00;95577.28;4964240;28;20217;-73
2021/12/14 06:51:33;;;;;;;50.03;3.93;;;;;;;0.80;100.00;95571.47;4948685;28;20293;-73
2021/12/14 06:54:15;;;;;;;32.60;4.33;;;;;;;0.95;100.00;95581.91;4949243;28;20198;-73
2021/12/14 06:57:04;;;;;;;49.93;4.10;;;;;;;1.07;100.00;95556.59;4929110;29;20608;-73
2021/12/14 06:59:33;;;;;;;68.63;4.67;;;;;;;1.11;100.00;95560.84;4940494;29;20217;-73
2021/12/14 07:02:14;;;;;;;31.17;3.90;;;;;;;1.05;100.00;95551.59;4947955;29;20201;-73
2021/12/14 07:05:00;;;;;;;93.17;5.27;;;;;;;0.95;100.00;95575.78;4934075;29;20198;-73
2021/12/14 07:07:30;;;;;;;38.30;4.40;;;;;;;1.09;100.00;95573.91;4951867;28;20232;-74
2021/12/14 07:10:04;;;;;;;136.70;6.83;;;;;;;1.14;100.00;95562.78;4956230;28;20790;-72
2021/12/14 07:12:34;;;;;;;156.50;7.47;;;;;;;1.04;100.00;95568.91;4955813;28;20212;-72
2021/12/14 07:15:09;;;;;;;21.03;3.27;;;;;;;1.17;100.00;95572.78;4950522;28;20269;-72
2021/12/14 07:17:43;;;;;;;40.37;3.67;;;;;;;1.10;100.00;95574.69;4951300;29;20281;-72
2021/12/14 07:20:42;;;;;;;75.67;5.00;;;;;;;1.32;100.00;95562.81;4952854;28;20225;-73
2021/12/14 07:23:27;;;;;;;108.10;7.40;;;;;;;1.51;100.00;95570.53;4946347;29;20205;-73
2021/12/14 07:26:03;;;;;;;71.87;4.40;;;;;;;1.42;100.00;95566.69;4941948;29;20209;-73
2021/12/14 07:28:36;;;;;;;62.67;3.97;;;;;;;1.28;100.00;95570.13;4951615;29;20264;-73
2021/12/14 07:31:12;;;;;;;36.87;3.77;;;;;;;1.32;100.00;95576.28;4952855;28;20194;-73
2021/12/14 07:33:44;;;;;;;42.53;4.13;;;;;;;1.47;100.00;95572.47;4943390;28;20244;-73
2021/12/14 07:36:13;;;;;;;73.97;6.37;;;;;;;1.38;100.00;95573.97;4952727;28;20201;-73
2021/12/14 07:38:45;;;;;;;68.03;4.93;;;;;;;1.40;100.00;95574.34;4956742;28;20272;-73
2021/12/14 07:41:23;;;;;;;43.00;3.77;;;;;;;1.49;100.00;95582.84;4961163;28;20284;-73
2021/12/14 07:44:03;;;;;;;17.23;3.90;;;;;;;1.69;100.00;95592.88;4937861;29;20206;-73
2021/12/14 07:46:39;;;;;;;79.97;5.63;;;;;;;1.51;100.00;95583.25;4937875;29;20229;-73
2021/12/14 07:49:07;;;;;;;10.13;3.30;;;;;;;1.66;100.00;95584.78;4956840;28;20209;-73
2021/12/14 07:51:36;;;;;;;13.70;2.77;;;;;;;1.66;100.00;95579.41;4956422;28;20260;-72
2021/12/14 07:54:07;;;;;;;18.83;3.20;;;;;;;1.70;100.00;95586.31;4942403;29;20203;-73
2021/12/14 07:56:38;;;;;;;7.77;2.73;;;;;;;1.72;100.00;95586.72;4940084;29;20345;-73
2021/12/14 07:59:11;;;;;;;27.67;2.93;;;;;;;1.51;100.00;95584.00;4955727;28;20300;-73
2021/12/14 08:01:37;;;;;;;10.27;3.07;;;;;;;1.67;100.00;95599.78;4948873;28;20229;-74
2021/12/14 08:04:07;;;;;;;6.37;2.70;;;;;;;1.84;100.00;95601.72;4955193;29;20198;-73
2021/12/14 08:06:54;;;;;;;11.77;3.40;;;;;;;1.64;100.00;95593.25;4955842;28;20221;-73
2021/12/14 08:09:48;;;;;;;16.97;3.03;;;;;;;1.72;100.00;95604.78;4954548;28;20209;-73
2021/12/14 08:12:41;;;;;;;13.37;2.93;;;;;;;1.75;100.00;95602.09;4955806;28;20202;-73
2021/12/14 08:15:13;;;;;;;12.70;3.97;;;;;;;1.90;100.00;95616.38;4936481;29;20238;-73
2021/12/14 08:17:40;;;;;;;14.90;3.13;;;;;;;1.74;100.00;95603.25;4955238;29;20190;-73
2021/12/14 08:20:19;;;;;;;14.97;3.20;;;;;;;1.86;100.00;95600.19;4955029;29;20225;-73
2021/12/14 08:22:45;;;;;;;26.23;3.00;;;;;;;1.98;100.00;95615.22;4956379;28;20197;-72
2021/12/14 08:25:13;;;;;;;116.30;7.03;;;;;;;1.99;100.00;95614.81;4953031;28;20281;-73
2021/12/14 08:27:41;;;;;;;27.77;3.53;;;;;;;1.93;100.00;95602.13;4938642;29;20196;-73
2021/12/14 08:30:14;;;;;;;7.63;2.50;;;;;;;2.12;100.00;95589.03;4938341;29;20695;-73
2021/12/14 08:32:42;;;;;;;16.63;3.40;;;;;;;2.22;100.00;95596.31;4955505;28;20663;-73
2021/12/14 08:35:12;;;;;;;33.27;4.03;;;;;;;2.26;100.00;95599.03;4944385;28;20265;-73
2021/12/14 08:37:44;;;;;;;10.50;2.93;;;;;;;2.32;100.00;95600.19;4953167;29;20620;-73
2021/12/14 08:40:27;;;;;;;4.27;3.07;;;;;;;2.61;100.00;95612.47;4952191;28;20272;-73
2021/12/14 08:43:07;;;;;;;3.67;2.67;;;;;;;2.68;100.00;95617.06;4959471;28;20631;-73
2021/12/14 08:45:39;;;;;;;2.40;2.20;;;;;;;2.66;100.00;95612.06;4953397;28;20305;-72
2021/12/14 08:48:05;;;;;;;4.70;3.10;;;;;;;2.76;100.00;95610.50;4939004;29;20554;-73
2021/12/14 08:50:36;;;;;;;2.90;2.70;;;;;;;2.85;100.00;95619.72;4939343;29;20617;-73
2021/12/14 08:53:02;;;;;;;6.23;2.57;;;;;;;3.01;100.00;95625.44;4941656;29;20556;-73
2021/12/14 08:55:32;;;;;;;3.20;2.90;;;;;;;3.02;100.00;95608.09;4954737;28;20189;-73
2021/12/14 08:57:59;;;;;;;8.43;3.10;;;;;;;3.13;100.00;95602.66;4935996;29;20249;-73
2021/12/14 09:00:31;;;;;;;3.80;3.40;;;;;;;3.04;100.00;95602.31;4953734;29;20221;-73
2021/12/14 09:03:00;;;;;;;3.63;2.77;;;;;;;3.19;100.00;95595.72;4953634;29;20189;-73
2021/12/14 09:05:33;;;;;;;2.37;2.17;;;;;;;3.23;100.00;95593.75;4954475;28;20280;-73
2021/12/14 09:08:00;;;;;;;1.80;1.70;;;;;;;3.18;100.00;95589.53;4954446;29;20237;-73
2021/12/14 09:10:31;;;;;;;1.50;1.40;;;;;;;3.23;100.00;95594.53;4957539;28;20220;-73
2021/12/14 09:13:04;;;;;;;1.97;1.83;;;;;;;3.32;100.00;95599.50;4959117;28;20197;-73
2021/12/14 09:15:41;;;;;;;2.47;2.27;;;;;;;3.50;100.00;95594.75;4944417;28;20245;-73
2021/12/14 09:18:08;;;;;;;2.50;2.30;;;;;;;3.58;100.00;95594.31;4953550;28;20204;-74
2021/12/14 09:20:50;;;;;;;5.03;3.93;;;;;;;3.48;100.00;95584.34;4954865;29;20260;-74
2021/12/14 09:23:22;;;;;;;4.70;3.37;;;;;;;3.32;100.00;95580.59;4953902;29;20209;-73
2021/12/14 09:25:48;;;;;;;2.80;2.60;;;;;;;3.34;100.00;95572.88;4940311;29;20215;-74
2021/12/14 09:28:15;;;;;;;3.20;2.50;;;;;;;3.46;100.00;95572.44;4954298;28;20249;-73
2021/12/14 09:30:45;;;;;;;4.73;2.77;;;;;;;3.35;100.00;95572.47;4954627;28;20194;-74
2021/12/14 09:33:13;;;;;;;4.93;2.60;;;;;;;3.20;100.00;95570.25;4953087;29;20233;-73
2021/12/14 09:35:41;;;;;;;2.60;2.40;;;;;;;3.19;100.00;95566.03;4953595;29;20194;-73
2021/12/14 09:38:12;;;;;;;3.90;2.30;;;;;;;3.46;100.00;95559.69;4954017;29;20194;-73
2021/12/14 09:40:43;;;;;;;3.57;2.63;;;;;;;3.66;100.00;95568.06;4940521;28;20256;-73
2021/12/14 09:43:10;;;;;;;4.93;3.27;;;;;;;3.69;100.00;95559.16;4957277;28;20221;-73
2021/12/14 09:45:43;;;;;;;3.20;2.70;;;;;;;3.99;100.00;95553.91;4943285;28;20222;-73
2021/12/14 09:48:18;;;;;;;2.90;2.60;;;;;;;4.28;100.00;95546.31;4953619;28;20197;-73
2021/12/14 09:50:47;;;;;;;6.03;2.57;;;;;;;4.53;100.00;95534.06;4953189;29;20192;-73
2021/12/14 09:53:18;;;;;;;2.53;1.90;;;;;;;4.62;100.00;95536.31;4953953;28;20300;-74
2021/12/14 09:55:47;;;;;;;1.50;1.40;;;;;;;4.33;100.00;95524.25;4949722;28;20195;-73
2021/12/14 09:58:19;;;;;;;2.23;1.40;;;;;;;4.26;100.00;95532.44;4952111;28;20193;-74
2021/12/14 10:00:50;;;;;;;1.23;1.13;;;;;;;4.06;100.00;95515.22;4953928;28;20245;-73
2021/12/14 10:03:16;;;;;;;1.60;1.50;;;;;;;3.94;100.00;95530.00;4950960;29;20201;-73
2021/12/14 10:06:13;;;;;;;1.60;1.50;;;;;;;3.91;100.00;95516.53;4954135;28;20221;-74
2021/12/14 10:08:47;;;;;;;1.40;1.10;;;;;;;3.95;100.00;95525.38;4944733;28;20320;-73
2021/12/14 10:11:24;;;;;;;1.30;1.20;;;;;;;4.08;100.00;95532.59;4959931;28;20263;-73
2021/12/14 10:13:54;;;;;;;1.73;1.40;;;;;;;4.27;100.00;95531.25;4952904;29;20189;-73
2021/12/14 10:16:20;;;;;;;2.00;1.70;;;;;;;4.52;100.00;95529.84;4942659;29;20251;-73
2021/12/14 10:18:50;;;;;;;1.33;1.23;;;;;;;4.74;100.00;95531.16;4951981;28;20217;-73
2021/12/14 10:21:20;;;;;;;1.53;1.43;;;;;;;4.85;100.00;95529.06;4953327;29;20217;-73
2021/12/14 10:23:48;;;;;;;1.47;1.37;;;;;;;5.09;100.00;95527.22;4932752;28;20213;-73
2021/12/14 10:26:15;;;;;;;1.40;1.30;;;;;;;5.11;100.00;95516.03;4953371;28;20761;-73
2021/12/14 10:28:46;;;;;;;2.17;1.30;;;;;;;5.20;100.00;95513.56;4952213;28;20557;-72
2021/12/14 10:31:25;;;;;;;1.57;1.33;;;;;;;5.25;100.00;95513.09;4953060;28;20196;-73
2021/12/14 10:33:51;;;;;;;2.00;1.40;;;;;;;5.37;100.00;95507.91;4952996;29;20660;-72
2021/12/14 10:36:30;;;;;;;1.57;1.30;;;;;;;5.53;100.00;95518.13;4952970;28;20182;-73
2021/12/14 10:44:37;;;;;;;1.93;1.20;;;;;;;5.55;100.00;95521.22;4934287;29;20197;-73
2021/12/14 10:47:05;;;;;;;1.80;1.70;;;;;;;5.70;100.00;95528.69;4951084;29;20236;-73
2021/12/14 10:49:32;;;;;;;1.60;1.50;;;;;;;5.61;100.00;95514.13;4952428;28;20955;-73
2021/12/14 10:52:04;;;;;;;1.30;1.20;;;;;;;5.81;100.00;95523.91;4949219;28;20585;-73
2021/12/14 10:54:30;;;;;;;3.33;1.43;;;;;;;5.86;100.00;95514.56;4952106;28;20723;-73
2021/12/14 10:57:00;;;;;;;3.67;3.27;;;;;;;5.53;100.00;95526.25;4934356;29;20313;-73
2021/12/14 10:59:34;;;;;;;1.20;1.10;;;;;;;5.34;100.00;95532.34;4952891;28;20717;-73
2021/12/14 11:02:01;;;;;;;1.93;1.20;;;;;;;5.46;100.00;95539.91;4947244;28;20202;-73
2021/12/14 11:04:53;;;;;;;2.10;2.00;;;;;;;5.59;100.00;95538.16;4933169;29;20620;-73
2021/12/14 11:07:25;;;;;;;2.63;2.27;;;;;;;5.74;100.00;95536.78;4947981;29;20218;-74
2021/12/14 11:09:55;;;;;;;31.40;26.67;;;;;;;5.82;100.00;95532.81;4955284;28;20297;-73
2021/12/14 11:12:29;;;;;;;21.37;18.03;;;;;;;5.85;100.00;95534.72;4962093;28;20189;-73
2021/12/14 11:15:23;;;;;;;4.17;3.77;;;;;;;5.69;100.00;95529.09;4948099;28;20189;-73
2021/12/14 11:18:14;;;;;;;1.37;1.23;;;;;;;5.75;100.00;95524.78;4942272;29;20316;-73
2021/12/14 11:20:41;;;;;;;2.37;1.60;;;;;;;5.87;100.00;95535.81;4946527;29;20362;-73
2021/12/14 11:23:12;;;;;;;1.17;1.07;;;;;;;5.67;100.00;95521.41;4944531;28;20226;-73
2021/12/14 11:25:46;;;;;;;2.37;1.07;;;;;;;5.95;100.00;95517.50;4962696;28;20251;-73
2021/12/14 11:28:18;;;;;;;1.37;1.27;;;;;;;5.94;100.00;95527.59;4931871;28;20193;-74
2021/12/14 11:30:46;;;;;;;2.00;1.50;;;;;;;5.97;100.00;95536.84;4931386;29;20521;-73
2021/12/14 11:33:26;;;;;;;1.60;1.50;;;;;;;5.96;100.00;95536.06;4930343;29;20896;-73
2021/12/14 11:36:10;;;;;;;2.00;1.60;;;;;;;5.90;100.00;95536.97;4951116;29;20204;-73
2021/12/14 11:38:47;;;;;;;1.20;1.03;;;;;;;6.15;100.00;95531.88;4950263;28;20660;-73
2021/12/14 11:41:38;;;;;;;1.67;1.27;;;;;;;6.33;100.00;95532.34;4957411;28;20194;-73
2021/12/14 11:44:17;;;;;;;1.13;1.00;;;;;;;6.15;100.00;95523.75;4934232;29;20218;-73
2021/12/14 11:46:52;;;;;;;1.17;1.07;;;;;;;6.19;100.00;95535.31;4924123;29;20210;-73
2021/12/14 11:49:20;;;;;;;0.80;0.80;;;;;;;6.22;100.00;95531.00;4950906;28;20221;-73
2021/12/14 11:51:47;;;;;;;1.00;0.80;;;;;;;6.07;100.00;95533.94;4950126;29;20208;-74
2021/12/14 11:54:17;;;;;;;0.77;0.77;;;;;;;5.94;100.00;95526.81;4950234;29;20198;-73
2021/12/14 11:56:43;;;;;;;1.27;1.10;;;;;;;6.08;100.00;95529.28;4950162;29;20190;-73
2021/12/14 11:59:08;;;;;;;0.80;0.80;;;;;;;6.03;100.00;95529.75;4952883;29;20304;-73
2021/12/14 12:01:41;;;;;;;0.93;0.93;;;;;;;6.14;100.00;95524.94;4951563;28;20619;-73
2021/12/14 12:04:43;;;;;;;1.00;0.90;;;;;;;6.09;100.00;95538.97;4951477;28;20242;-74
2021/12/14 12:09:43;;;;;;;1.03;1.00;;;;;;;5.95;100.00;95545.41;4942178;28;20245;-73
2021/12/14 12:12:18;;;;;;;1.03;1.00;;;;;;;6.07;100.00;95546.75;4962561;28;20216;-73
2021/12/14 12:14:49;;;;;;;1.10;1.00;;;;;;;5.90;100.00;95547.81;4947697;28;20204;-73
2021/12/14 12:17:18;;;;;;;1.90;1.33;;;;;;;5.87;100.00;95548.63;4950376;29;20336;-73
2021/12/14 12:20:05;;;;;;;1.53;1.43;;;;;;;6.44;100.00;95548.44;4950501;28;20222;-73
2021/12/14 12:22:45;;;;;;;1.50;1.30;;;;;;;6.48;100.00;95558.03;4946437;28;20194;-74
2021/12/14 12:25:22;;;;;;;1.73;1.30;;;;;;;6.00;100.00;95569.31;4955119;28;20276;-73
2021/12/14 12:28:03;;;;;;;2.00;1.67;;;;;;;6.18;100.00;95562.84;4935546;29;20248;-74